Time;durP1;ratioP1;P1;durP2;ratioP2;P2;SDS_P1;SDS_P2;PMS_P1;PMS_P2;Temp;Humidity;BMP_temperature;BMP_pressure;BME280_temperature;BME280_humidity;BME280_pressure;Samples;Min_cycle;Max_cycle;Signal;HPM_P1;HPM_P2
2022/05/30 00:00:31;;;;;;;3.33;1.65;;;9.00;58.40;;;;;;5091047;28;20046;-60
2022/05/30 00:02:57;;;;;;;2.53;1.40;;;9.00;58.60;;;;;;5101005;28;20027;-59
2022/05/30 00:05:24;;;;;;;2.13;1.40;;;9.00;58.50;;;;;;5094719;28;20028;-58
2022/05/30 00:07:50;;;;;;;3.55;1.15;;;8.90;58.70;;;;;;5101274;28;20027;-58
2022/05/30 00:10:17;;;;;;;1.83;1.35;;;8.90;58.80;;;;;;5100016;28;20036;-59
2022/05/30 00:12:43;;;;;;;3.38;1.60;;;9.00;58.90;;;;;;5097168;28;20032;-60
2022/05/30 00:15:13;;;;;;;3.80;1.50;;;8.90;58.80;;;;;;5098321;28;20046;-59
2022/05/30 00:17:39;;;;;;;2.55;1.58;;;8.90;58.80;;;;;;5096435;28;20028;-58
2022/05/30 00:20:06;;;;;;;2.38;1.08;;;8.90;58.70;;;;;;5092780;28;20028;-59
2022/05/30 00:22:32;;;;;;;3.13;1.33;;;8.90;58.90;;;;;;5101376;28;20049;-59
2022/05/30 00:24:57;;;;;;;1.90;1.23;;;8.90;58.90;;;;;;5099735;28;20733;-59
2022/05/30 00:27:23;;;;;;;3.35;1.40;;;8.80;58.90;;;;;;5091369;28;20070;-59
2022/05/30 00:29:49;;;;;;;3.10;1.40;;;8.80;59.00;;;;;;5096399;28;20024;-59
2022/05/30 00:32:14;;;;;;;1.75;1.25;;;8.80;58.90;;;;;;5098004;28;20075;-58
2022/05/30 00:34:40;;;;;;;2.58;1.15;;;8.80;59.00;;;;;;5102709;28;20024;-60
2022/05/30 00:37:06;;;;;;;2.60;1.27;;;8.70;59.00;;;;;;5094984;28;20047;-58
2022/05/30 00:39:32;;;;;;;1.77;1.30;;;8.70;59.20;;;;;;5093534;28;20028;-58
2022/05/30 00:42:14;;;;;;;3.47;1.20;;;8.70;59.30;;;;;;5086355;28;20055;-59
2022/05/30 00:44:44;;;;;;;2.75;1.30;;;8.70;60.00;;;;;;5093680;28;20055;-58
2022/05/30 00:47:10;;;;;;;2.95;1.38;;;8.70;59.30;;;;;;5098389;28;20039;-59
2022/05/30 00:49:38;;;;;;;1.80;1.17;;;8.60;59.40;;;;;;5096935;28;20050;-60
2022/05/30 00:52:07;;;;;;;1.65;1.10;;;8.70;59.70;;;;;;5097152;28;20070;-58
2022/05/30 00:54:42;;;;;;;3.75;0.90;;;8.60;59.70;;;;;;5103484;28;20024;-58
2022/05/30 00:57:21;;;;;;;2.90;1.10;;;8.60;59.60;;;;;;5097309;28;20039;-59
2022/05/30 00:59:55;;;;;;;3.47;1.20;;;8.60;59.50;;;;;;5100003;28;20089;-58
2022/05/30 01:02:23;;;;;;;3.13;1.00;;;8.60;60.00;;;;;;5099798;28;20048;-59
2022/05/30 01:07:36;;;;;;;1.50;1.10;;;8.60;59.70;;;;;;5096857;28;20039;-58
2022/05/30 01:10:04;;;;;;;1.67;1.10;;;8.50;59.60;;;;;;5095980;28;20036;-59
2022/05/30 01:12:39;;;;;;;2.58;1.35;;;8.50;59.80;;;;;;5099466;28;20024;-58
2022/05/30 01:15:08;;;;;;;1.30;1.20;;;8.50;60.20;;;;;;5099502;28;20028;-59
2022/05/30 01:17:35;;;;;;;2.70;1.42;;;8.50;59.90;;;;;;5104258;28;20040;-58
2022/05/30 01:20:16;;;;;;;1.77;1.20;;;8.40;60.00;;;;;;5099864;28;20032;-59
2022/05/30 01:23:18;;;;;;;2.20;1.10;;;8.40;60.20;;;;;;5097845;28;20042;-58
2022/05/30 01:26:08;;;;;;;3.03;1.48;;;8.40;61.10;;;;;;5097839;28;20625;-58
2022/05/30 01:28:43;;;;;;;1.08;0.98;;;8.40;60.40;;;;;;5109921;28;20043;-59
2022/05/30 01:31:09;;;;;;;;;;;8.30;59.90;;;;;;5106473;28;20124;-58
2022/05/30 01:33:35;;;;;;;2.13;1.10;;;8.40;60.20;;;;;;5098081;28;19977;-58
2022/05/30 01:36:01;;;;;;;3.03;1.25;;;8.30;59.20;;;;;;5096515;28;20048;-58
2022/05/30 01:38:28;;;;;;;3.50;1.45;;;8.30;59.40;;;;;;5106166;28;20123;-59
2022/05/30 01:40:55;;;;;;;1.92;1.42;;;8.20;59.50;;;;;;5109865;28;20023;-58
2022/05/30 01:43:21;;;;;;;2.83;1.42;;;8.20;59.70;;;;;;5098011;27;20035;-58
2022/05/30 01:45:47;;;;;;;3.63;1.00;;;8.20;60.00;;;;;;5096019;28;20025;-58
2022/05/30 01:48:12;;;;;;;2.45;1.30;;;8.20;59.90;;;;;;5107168;28;20020;-59
2022/05/30 01:50:38;;;;;;;2.17;1.40;;;8.20;59.90;;;;;;5095342;28;20024;-59
2022/05/30 01:53:04;;;;;;;2.08;1.20;;;8.20;60.00;;;;;;5098551;28;20024;-59
2022/05/30 01:55:30;;;;;;;1.27;1.10;;;8.10;60.10;;;;;;5105538;28;20032;-60
2022/05/30 01:57:55;;;;;;;1.90;1.30;;;8.10;60.30;;;;;;5096248;28;20024;-58
2022/05/30 02:00:21;;;;;;;3.35;1.13;;;8.10;60.30;;;;;;5109998;28;20492;-60
2022/05/30 02:02:47;;;;;;;2.78;1.50;;;8.10;60.30;;;;;;5108699;28;20055;-58
2022/05/30 02:05:13;;;;;;;2.83;1.30;;;8.10;60.40;;;;;;5098908;28;20028;-59
2022/05/30 02:07:38;;;;;;;4.70;1.35;;;8.10;60.50;;;;;;5097818;28;20024;-59
2022/05/30 02:10:05;;;;;;;2.88;1.60;;;8.10;60.50;;;;;;5095446;28;20069;-59
2022/05/30 02:12:31;;;;;;;1.40;1.08;;;8.10;60.60;;;;;;5102157;28;20035;-58
2022/05/30 02:14:56;;;;;;;2.22;1.30;;;8.10;60.60;;;;;;5094236;28;20028;-59
2022/05/30 02:17:22;;;;;;;3.67;1.48;;;8.10;60.60;;;;;;5094339;28;20058;-59
2022/05/30 02:19:48;;;;;;;1.40;0.90;;;8.00;60.50;;;;;;5090376;28;20078;-60
2022/05/30 02:22:18;;;;;;;3.13;1.17;;;8.00;60.50;;;;;;5100301;28;20073;-58
2022/05/30 02:24:44;;;;;;;3.03;1.30;;;8.00;60.60;;;;;;5090301;28;20043;-58
2022/05/30 02:27:12;;;;;;;1.80;1.30;;;8.00;60.50;;;;;;5100122;28;20551;-58
2022/05/30 02:29:38;;;;;;;2.75;1.30;;;8.00;60.60;;;;;;5099366;28;20031;-59
2022/05/30 02:32:05;;;;;;;2.75;1.30;;;7.90;60.50;;;;;;5100247;28;20024;-58
2022/05/30 02:37:16;;;;;;;2.83;1.33;;;7.90;60.70;;;;;;5099220;28;20177;-58
2022/05/30 02:39:42;;;;;;;2.47;1.38;;;7.90;60.50;;;;;;5101227;28;20035;-60
2022/05/30 02:42:08;;;;;;;2.53;1.20;;;7.90;60.60;;;;;;5091447;28;20103;-58
2022/05/30 02:44:34;;;;;;;2.45;1.27;;;7.80;60.60;;;;;;5100613;28;20838;-59
2022/05/30 02:47:00;;;;;;;3.15;1.45;;;7.80;60.60;;;;;;5096290;28;20020;-59
2022/05/30 02:49:27;;;;;;;4.28;1.50;;;7.80;60.60;;;;;;5095281;28;20036;-58
2022/05/30 02:51:54;;;;;;;4.10;1.17;;;7.80;60.80;;;;;;5102868;28;20020;-58
2022/05/30 02:54:21;;;;;;;1.40;1.20;;;7.80;60.80;;;;;;5099281;28;20016;-58
2022/05/30 02:56:52;;;;;;;3.13;1.33;;;7.80;60.80;;;;;;5095774;28;20039;-60
2022/05/30 02:59:18;;;;;;;1.38;1.08;;;7.70;60.90;;;;;;5093828;28;20025;-58
2022/05/30 03:01:44;;;;;;;2.00;0.95;;;7.70;60.70;;;;;;5097379;28;20055;-58
2022/05/30 03:04:10;;;;;;;4.13;1.20;;;7.70;60.80;;;;;;5084568;28;20053;-59
2022/05/30 03:06:36;;;;;;;2.45;1.35;;;7.70;60.80;;;;;;5100330;28;20111;-59
2022/05/30 03:09:03;;;;;;;1.40;1.13;;;7.70;60.80;;;;;;5097393;28;20072;-59
2022/05/30 03:11:29;;;;;;;2.22;1.20;;;7.60;60.80;;;;;;5092385;28;20024;-59
2022/05/30 03:13:54;;;;;;;2.92;1.30;;;7.60;60.90;;;;;;5097990;28;20039;-60
2022/05/30 03:16:20;;;;;;;1.35;1.08;;;7.60;60.90;;;;;;5095862;28;20031;-59
2022/05/30 03:18:46;;;;;;;3.85;1.17;;;7.60;60.90;;;;;;5096165;28;20027;-59
2022/05/30 03:21:12;;;;;;;4.28;1.20;;;7.60;60.90;;;;;;5097461;28;20036;-59
2022/05/30 03:23:38;;;;;;;2.40;1.48;;;7.50;60.90;;;;;;5096083;28;20043;-59
2022/05/30 03:26:05;;;;;;;2.15;1.17;;;7.50;60.90;;;;;;5092073;28;20024;-59
2022/05/30 03:28:32;;;;;;;4.03;1.40;;;7.50;60.80;;;;;;5098595;28;20016;-61
2022/05/30 03:30:59;;;;;;;1.70;1.20;;;7.50;60.80;;;;;;5095875;28;20028;-60
2022/05/30 03:33:24;;;;;;;1.92;1.20;;;7.50;60.90;;;;;;5092951;28;20032;-59
2022/05/30 03:35:50;;;;;;;1.05;0.93;;;7.40;60.90;;;;;;5100446;28;20088;-61
2022/05/30 03:38:16;;;;;;;2.67;1.10;;;7.40;61.00;;;;;;5100585;28;20057;-58
2022/05/30 03:40:43;;;;;;;2.72;1.15;;;7.40;61.10;;;;;;5095891;28;20054;-58
2022/05/30 03:43:11;;;;;;;2.05;1.13;;;7.40;61.20;;;;;;5101748;28;20028;-58
2022/05/30 03:45:40;;;;;;;2.15;1.08;;;7.40;61.20;;;;;;5096132;28;20062;-59
2022/05/30 03:48:07;;;;;;;4.07;1.27;;;7.40;61.20;;;;;;5096504;28;20118;-58
2022/05/30 03:50:33;;;;;;;1.88;1.33;;;7.40;61.20;;;;;;5092946;28;20028;-60
2022/05/30 03:53:05;;;;;;;1.75;1.10;;;7.40;61.20;;;;;;5103436;28;20034;-58
2022/05/30 03:55:36;;;;;;;2.67;1.30;;;7.40;61.30;;;;;;5092072;28;20059;-59
2022/05/30 03:58:09;;;;;;;1.42;0.90;;;7.30;61.20;;;;;;5094178;28;20083;-60
2022/05/30 04:00:36;;;;;;;1.20;1.10;;;7.30;61.50;;;;;;5102250;28;20055;-61
2022/05/30 04:03:02;;;;;;;1.70;1.10;;;7.30;61.30;;;;;;5103685;28;20039;-59
2022/05/30 04:05:28;;;;;;;2.90;1.15;;;7.30;61.50;;;;;;5103106;28;20059;-59
2022/05/30 04:07:55;;;;;;;2.67;1.30;;;7.40;61.60;;;;;;5098873;28;20130;-58
2022/05/30 04:10:21;;;;;;;2.20;1.10;;;7.40;61.60;;;;;;5095820;28;20055;-60
2022/05/30 04:12:47;;;;;;;2.50;1.20;;;7.40;61.60;;;;;;5100848;28;20020;-58
2022/05/30 04:15:23;;;;;;;2.03;1.20;;;7.40;61.80;;;;;;5102197;28;20100;-61
2022/05/30 04:17:49;;;;;;;1.30;1.15;;;7.40;62.40;;;;;;5097531;28;20032;-59
2022/05/30 04:20:16;;;;;;;2.60;1.38;;;7.50;61.90;;;;;;5098545;28;20023;-59
2022/05/30 04:22:44;;;;;;;4.35;1.90;;;7.50;62.10;;;;;;5101914;28;20515;-58
2022/05/30 04:25:10;;;;;;;3.55;1.50;;;7.60;62.20;;;;;;5091753;28;20036;-59
2022/05/30 04:27:37;;;;;;;2.88;1.40;;;7.70;62.30;;;;;;5103371;28;20114;-60
2022/05/30 04:30:04;;;;;;;3.47;1.63;;;7.80;62.30;;;;;;5097407;28;20020;-60
2022/05/30 04:32:30;;;;;;;5.75;1.35;;;7.80;62.20;;;;;;5103268;28;20088;-58
2022/05/30 04:34:56;;;;;;;4.47;1.50;;;7.90;62.20;;;;;;5096490;28;20112;-58
2022/05/30 04:37:21;;;;;;;1.73;1.33;;;8.00;62.20;;;;;;5101475;28;20418;-58
2022/05/30 04:39:47;;;;;;;3.15;1.40;;;8.10;62.20;;;;;;5096117;28;20043;-58
2022/05/30 04:42:13;;;;;;;3.58;1.65;;;8.10;62.10;;;;;;5097880;28;20031;-59
2022/05/30 04:44:38;;;;;;;1.42;1.00;;;8.20;62.00;;;;;;5094606;28;20031;-59
2022/05/30 04:47:05;;;;;;;3.60;1.40;;;8.30;61.90;;;;;;5106238;28;20031;-59
2022/05/30 04:49:31;;;;;;;4.55;1.20;;;8.50;61.90;;;;;;5093675;28;20039;-59
2022/05/30 04:51:57;;;;;;;2.00;1.08;;;8.50;61.70;;;;;;5097535;28;20032;-59
2022/05/30 04:54:24;;;;;;;3.80;1.70;;;8.60;61.80;;;;;;5095663;28;20993;-59
2022/05/30 04:56:51;;;;;;;3.92;1.33;;;8.70;61.90;;;;;;5098466;28;20032;-61
2022/05/30 04:59:17;;;;;;;1.25;1.15;;;8.80;61.80;;;;;;5095497;28;20032;-60
2022/05/30 05:01:43;;;;;;;2.45;1.20;;;9.00;61.80;;;;;;5093172;28;20071;-59
2022/05/30 05:04:11;;;;;;;2.53;1.45;;;9.10;61.60;;;;;;5098931;28;20024;-59
2022/05/30 05:06:37;;;;;;;1.52;1.13;;;9.20;61.50;;;;;;5098866;28;20032;-60
2022/05/30 05:09:15;;;;;;;3.63;1.35;;;9.30;61.00;;;;;;5090225;28;20040;-60
2022/05/30 05:11:42;;;;;;;6.97;1.40;;;9.40;61.30;;;;;;5100044;28;20450;-60
2022/05/30 05:14:08;;;;;;;2.30;1.50;;;9.40;60.80;;;;;;5102380;28;20028;-59
2022/05/30 05:16:34;;;;;;;7.38;1.63;;;9.50;60.90;;;;;;5099342;28;20085;-60
2022/05/30 05:19:00;;;;;;;9.90;1.80;;;9.50;60.90;;;;;;5087598;28;20100;-59
2022/05/30 05:21:30;;;;;;;7.78;1.60;;;9.60;60.80;;;;;;5088813;28;20035;-58
2022/05/30 05:23:57;;;;;;;6.60;1.90;;;9.70;61.00;;;;;;5094715;28;20535;-58
2022/05/30 05:26:23;;;;;;;3.42;1.90;;;9.70;60.70;;;;;;5106433;28;20028;-58
2022/05/30 05:28:49;;;;;;;3.20;1.65;;;9.80;60.70;;;;;;5094741;28;20758;-60
2022/05/30 05:31:22;;;;;;;2.88;1.45;;;9.90;60.80;;;;;;5090971;28;20032;-58
2022/05/30 05:33:48;;;;;;;6.85;1.50;;;10.00;60.90;;;;;;5091969;28;20090;-58
2022/05/30 05:36:22;;;;;;;6.97;1.58;;;10.10;60.80;;;;;;5093621;28;20567;-58
2022/05/30 05:38:48;;;;;;;;;;;10.20;61.00;;;;;;5087816;28;20385;-58
2022/05/30 05:41:14;;;;;;;5.03;1.42;;;10.30;61.00;;;;;;5100253;28;19912;-58
2022/05/30 05:43:39;;;;;;;3.17;1.85;;;10.50;60.80;;;;;;5100249;28;20016;-59
2022/05/30 05:46:11;;;;;;;12.45;1.70;;;10.60;60.90;;;;;;5087865;28;20054;-58
2022/05/30 05:48:36;;;;;;;5.70;2.00;;;10.80;60.90;;;;;;5101513;28;20028;-60
2022/05/30 05:51:04;;;;;;;9.68;2.13;;;11.00;60.70;;;;;;5091701;28;20062;-59
2022/05/30 05:53:29;;;;;;;4.40;2.00;;;11.10;60.70;;;;;;5100680;28;20017;-60
2022/05/30 05:55:55;;;;;;;3.08;1.80;;;11.30;60.70;;;;;;5096771;28;20111;-60
2022/05/30 05:58:21;;;;;;;4.88;2.17;;;11.50;60.60;;;;;;5107704;28;20078;-59
2022/05/30 06:00:46;;;;;;;3.90;1.83;;;11.60;60.30;;;;;;5097714;28;20031;-58
2022/05/30 06:03:12;;;;;;;6.88;2.10;;;11.80;60.20;;;;;;5098304;28;20031;-58
2022/05/30 06:05:41;;;;;;;3.42;1.98;;;12.00;60.00;;;;;;5092707;28;20028;-58
2022/05/30 06:08:07;;;;;;;7.45;2.00;;;12.20;59.80;;;;;;5105505;28;20028;-60
2022/05/30 06:11:04;;;;;;;6.43;2.40;;;12.30;59.60;;;;;;5092862;28;20051;-60
2022/05/30 06:13:18;;;;;;;4.15;2.30;;;12.50;59.60;;;;;;5101216;28;21391;-59
2022/05/30 06:15:44;;;;;;;5.47;2.20;;;12.60;59.30;;;;;;5092117;28;20542;-60
2022/05/30 06:18:10;;;;;;;5.68;2.20;;;12.80;59.30;;;;;;5102684;28;20437;-60
2022/05/30 06:20:35;;;;;;;4.22;2.38;;;12.90;59.20;;;;;;5099764;28;20024;-60
2022/05/30 06:23:01;;;;;;;5.10;2.28;;;13.00;59.10;;;;;;5092495;28;20043;-60
2022/05/30 06:25:27;;;;;;;4.72;2.05;;;13.20;59.00;;;;;;5095270;28;20075;-62
2022/05/30 06:27:52;;;;;;;6.15;2.72;;;13.30;59.00;;;;;;5102244;28;20036;-60
2022/05/30 06:30:18;;;;;;;3.65;2.15;;;13.50;59.00;;;;;;5102140;28;20055;-60
2022/05/30 06:32:44;;;;;;;5.60;2.45;;;13.60;59.00;;;;;;5097133;28;20025;-59
2022/05/30 06:35:09;;;;;;;3.20;2.17;;;13.80;58.90;;;;;;5105787;28;20035;-60
2022/05/30 06:37:35;;;;;;;5.38;2.35;;;14.00;58.70;;;;;;5097360;28;20088;-61
2022/05/30 06:40:01;;;;;;;6.35;2.33;;;14.10;58.60;;;;;;5099379;28;20040;-61
2022/05/30 06:42:28;;;;;;;4.22;2.00;;;14.30;58.30;;;;;;5100455;28;20024;-60
2022/05/30 06:44:54;;;;;;;2.47;2.00;;;14.40;57.90;;;;;;5095830;28;20861;-60
2022/05/30 06:47:19;;;;;;;3.60;2.28;;;14.60;57.60;;;;;;5095135;28;20073;-60
2022/05/30 06:49:46;;;;;;;3.33;2.30;;;14.70;57.40;;;;;;5098294;28;20138;-60
2022/05/30 06:52:12;;;;;;;4.35;2.67;;;14.80;57.40;;;;;;5099789;28;20043;-60
2022/05/30 06:54:38;;;;;;;6.53;3.03;;;14.90;57.10;;;;;;5099053;28;20063;-60
2022/05/30 06:59:49;;;;;;;5.60;3.30;;;15.00;56.80;;;;;;5099723;28;20057;-60
2022/05/30 07:02:15;;;;;;;7.35;3.88;;;15.20;56.90;;;;;;5099772;28;20064;-60
2022/05/30 07:04:41;;;;;;;5.97;2.85;;;15.30;56.90;;;;;;5106453;28;20047;-61
2022/05/30 07:07:10;;;;;;;4.65;3.00;;;15.40;56.70;;;;;;5095272;28;20107;-60
2022/05/30 07:09:37;;;;;;;2.88;2.40;;;15.50;56.60;;;;;;5100669;28;20107;-60
2022/05/30 07:12:03;;;;;;;4.88;2.65;;;15.60;56.40;;;;;;5095727;28;20046;-60
2022/05/30 07:14:29;;;;;;;4.70;3.08;;;15.80;56.40;;;;;;5088447;28;20438;-60
2022/05/30 07:16:54;;;;;;;4.35;2.65;;;15.90;56.30;;;;;;5096015;28;20066;-61
2022/05/30 07:19:20;;;;;;;3.13;2.38;;;16.00;56.20;;;;;;5092889;28;20036;-60
2022/05/30 07:21:46;;;;;;;3.13;2.10;;;16.20;56.00;;;;;;5096195;28;20108;-60
2022/05/30 07:24:12;;;;;;;2.70;2.35;;;16.30;55.50;;;;;;5091809;28;20079;-60
2022/05/30 07:26:38;;;;;;;5.25;2.60;;;16.40;55.20;;;;;;5094424;28;20024;-60
2022/05/30 07:29:05;;;;;;;2.85;1.95;;;16.50;54.80;;;;;;5091691;28;20113;-60
2022/05/30 07:31:31;;;;;;;5.97;2.40;;;16.60;54.80;;;;;;5089533;28;20024;-60
2022/05/30 07:33:57;;;;;;;5.72;2.70;;;16.80;54.60;;;;;;5086947;28;20439;-60
2022/05/30 07:36:31;;;;;;;2.60;2.33;;;16.90;54.50;;;;;;5088447;28;20105;-62
2022/05/30 07:38:57;;;;;;;6.63;2.83;;;16.90;54.00;;;;;;5096380;28;20034;-60
2022/05/30 07:41:25;;;;;;;3.22;1.75;;;17.00;53.50;;;;;;5084001;28;20057;-60
2022/05/30 07:43:51;;;;;;;2.78;1.88;;;17.10;53.70;;;;;;5091839;28;20032;-59
2022/05/30 07:46:18;;;;;;;3.53;2.28;;;17.20;53.70;;;;;;5098043;28;20032;-61
2022/05/30 07:48:44;;;;;;;3.33;1.70;;;17.20;53.30;;;;;;5090988;28;20031;-61
2022/05/30 07:51:12;;;;;;;3.17;1.40;;;17.30;53.00;;;;;;5094165;28;20039;-60
2022/05/30 07:53:39;;;;;;;1.77;1.60;;;17.40;52.80;;;;;;5091676;28;20024;-60
2022/05/30 07:56:07;;;;;;;4.40;1.77;;;17.50;52.70;;;;;;5098351;28;20046;-60
2022/05/30 07:58:33;;;;;;;2.92;1.33;;;17.50;52.90;;;;;;5088423;28;20032;-62
2022/05/30 08:00:59;;;;;;;3.72;1.58;;;17.60;53.00;;;;;;5095126;28;20028;-60
2022/05/30 08:03:28;;;;;;;2.03;1.05;;;17.70;52.30;;;;;;5095899;28;20027;-61
2022/05/30 08:06:04;;;;;;;2.45;1.00;;;17.80;52.10;;;;;;5098495;28;20039;-61
2022/05/30 08:08:30;;;;;;;4.05;1.85;;;17.90;51.60;;;;;;5088446;28;20016;-62
2022/05/30 08:10:56;;;;;;;3.55;1.60;;;18.10;52.00;;;;;;5098196;28;20028;-61
2022/05/30 08:13:21;;;;;;;1.98;1.60;;;18.10;51.70;;;;;;5083629;28;20024;-61
2022/05/30 08:15:47;;;;;;;1.85;1.52;;;18.20;51.20;;;;;;5083479;28;20133;-61
2022/05/30 08:18:18;;;;;;;3.33;1.45;;;18.20;51.20;;;;;;5085974;28;20107;-60
2022/05/30 08:20:44;;;;;;;1.77;1.40;;;18.20;50.50;;;;;;5096357;28;20031;-60
2022/05/30 08:23:10;;;;;;;1.90;1.50;;;18.20;50.40;;;;;;5094808;28;20082;-61
2022/05/30 08:25:40;;;;;;;2.40;1.73;;;18.20;50.60;;;;;;5004253;28;20031;-61
2022/05/30 08:28:06;;;;;;;3.33;1.50;;;18.20;50.70;;;;;;5086092;28;20043;-61
2022/05/30 08:30:32;;;;;;;2.88;1.50;;;18.30;50.70;;;;;;5082922;28;20032;-60
2022/05/30 08:32:57;;;;;;;3.13;1.70;;;18.30;51.00;;;;;;5082593;28;20046;-61
2022/05/30 08:35:23;;;;;;;2.45;1.48;;;18.40;50.40;;;;;;5085044;28;20024;-61
2022/05/30 08:37:50;;;;;;;2.25;1.40;;;18.50;50.70;;;;;;5084301;28;20044;-61
2022/05/30 08:43:16;;;;;;;1.65;1.10;;;18.60;49.80;;;;;;5079687;28;20081;-60
2022/05/30 08:45:46;;;;;;;2.55;1.05;;;18.70;49.60;;;;;;5088846;28;20020;-61
2022/05/30 08:48:22;;;;;;;2.65;1.20;;;18.80;49.20;;;;;;5076357;28;20032;-60
2022/05/30 08:51:21;;;;;;;2.75;1.27;;;18.90;48.90;;;;;;5096426;28;20039;-61
2022/05/30 08:54:15;;;;;;;2.15;0.90;;;18.90;47.40;;;;;;5092959;28;20016;-60
2022/05/30 08:56:43;;;;;;;2.85;1.00;;;18.90;46.60;;;;;;5093456;28;20058;-60
2022/05/30 08:59:20;;;;;;;1.92;0.90;;;18.90;47.30;;;;;;5097288;28;20056;-60
2022/05/30 09:01:49;;;;;;;1.00;0.90;;;18.90;47.80;;;;;;5089425;28;20031;-61
2022/05/30 09:04:38;;;;;;;2.55;1.05;;;18.90;47.90;;;;;;5087889;28;20028;-61
2022/05/30 09:07:10;;;;;;;2.45;1.00;;;19.00;46.00;;;;;;5090809;28;20028;-60
2022/05/30 09:09:42;;;;;;;1.35;0.80;;;19.10;46.30;;;;;;5085478;28;20095;-61
2022/05/30 09:12:20;;;;;;;2.47;0.80;;;19.10;45.90;;;;;;5088720;28;20024;-60
2022/05/30 09:15:07;;;;;;;1.40;0.90;;;19.10;45.80;;;;;;5096593;28;20109;-60
2022/05/30 09:18:02;;;;;;;2.28;1.23;;;19.00;45.90;;;;;;5077298;28;21550;-61
2022/05/30 09:20:30;;;;;;;2.22;1.17;;;19.00;46.50;;;;;;5083580;28;20105;-61
2022/05/30 09:22:55;;;;;;;1.70;0.90;;;19.10;46.40;;;;;;5092208;28;20440;-61
2022/05/30 09:28:16;;;;;;;3.78;0.85;;;19.30;45.00;;;;;;5091865;28;20035;-61
2022/05/30 09:30:51;;;;;;;3.28;0.88;;;19.40;45.70;;;;;;5097889;28;20614;-61
2022/05/30 09:33:31;;;;;;;5.68;1.00;;;19.40;45.10;;;;;;5095092;28;20048;-61
2022/05/30 09:36:17;;;;;;;1.50;0.93;;;19.50;45.30;;;;;;5093688;28;20059;-61
2022/05/30 09:38:47;;;;;;;3.60;1.00;;;19.70;45.00;;;;;;5102981;28;20084;-61
2022/05/30 09:41:26;;;;;;;4.22;0.90;;;19.80;45.60;;;;;;5102653;28;20053;-61
2022/05/30 09:44:03;;;;;;;3.10;0.95;;;20.00;44.50;;;;;;5095417;28;20028;-62
2022/05/30 09:46:41;;;;;;;3.47;1.27;;;20.20;44.50;;;;;;5104734;28;20414;-62
2022/05/30 09:49:29;;;;;;;1.83;0.90;;;20.40;43.80;;;;;;5097098;28;20031;-62
2022/05/30 09:52:04;;;;;;;2.63;1.00;;;20.50;44.10;;;;;;5083398;28;20107;-61
2022/05/30 09:54:34;;;;;;;4.13;1.02;;;20.60;43.20;;;;;;5092665;28;20553;-61
2022/05/30 09:57:16;;;;;;;2.75;1.05;;;20.60;42.80;;;;;;5106721;28;20086;-61
2022/05/30 09:59:45;;;;;;;1.90;1.00;;;20.70;41.80;;;;;;5095687;28;20016;-61
2022/05/30 10:02:29;;;;;;;2.10;0.98;;;20.70;42.40;;;;;;5100081;28;20032;-61
2022/05/30 10:05:06;;;;;;;2.38;0.95;;;20.70;41.00;;;;;;5100151;28;20024;-62
2022/05/30 10:07:33;;;;;;;1.58;0.90;;;20.70;41.00;;;;;;5094234;28;20028;-61
2022/05/30 10:10:10;;;;;;;1.80;0.90;;;20.70;42.70;;;;;;5099222;28;20024;-61
2022/05/30 10:12:44;;;;;;;2.15;0.82;;;20.70;42.10;;;;;;5101087;28;20039;-61
2022/05/30 10:15:23;;;;;;;1.35;0.90;;;20.80;42.70;;;;;;5090356;28;20044;-61
2022/05/30 10:17:50;;;;;;;2.40;1.00;;;20.90;42.40;;;;;;5098674;28;20063;-61
2022/05/30 10:20:39;;;;;;;2.03;0.93;;;21.00;42.90;;;;;;5099060;28;20036;-60
2022/05/30 10:29:36;;;;;;;1.58;0.80;;;21.50;41.30;;;;;;5073811;28;20049;-60
2022/05/30 10:32:12;;;;;;;4.85;1.02;;;21.70;41.60;;;;;;5078219;28;20028;-62
2022/05/30 10:34:53;;;;;;;1.30;0.80;;;21.80;40.30;;;;;;5078563;28;20067;-61
2022/05/30 10:37:44;;;;;;;2.88;0.88;;;21.90;39.90;;;;;;5069071;28;20493;-61
2022/05/30 10:40:15;;;;;;;1.92;0.60;;;22.00;37.90;;;;;;5076568;28;20040;-61
2022/05/30 10:43:00;;;;;;;1.63;0.80;;;22.00;39.20;;;;;;5070216;28;20044;-61
2022/05/30 10:45:30;;;;;;;1.60;0.82;;;22.00;39.20;;;;;;5053712;28;20033;-60
2022/05/30 10:47:57;;;;;;;2.72;0.95;;;22.00;39.40;;;;;;5077813;28;20096;-62
2022/05/30 10:50:51;;;;;;;3.63;1.08;;;21.90;38.60;;;;;;5055523;28;20028;-62
2022/05/30 10:53:36;;;;;;;2.45;0.90;;;21.80;38.50;;;;;;5072378;28;20039;-61
2022/05/30 10:56:15;;;;;;;2.63;1.05;;;21.70;38.80;;;;;;5075010;28;20107;-61
2022/05/30 10:59:07;;;;;;;2.70;0.80;;;21.70;39.80;;;;;;5077120;28;20123;-62
2022/05/30 11:01:38;;;;;;;1.65;1.05;;;21.70;39.20;;;;;;5096534;28;20025;-61
2022/05/30 11:04:23;;;;;;;1.50;0.75;;;21.90;39.80;;;;;;5094588;28;20035;-61
2022/05/30 11:06:50;;;;;;;;;;;22.00;38.80;;;;;;5091432;28;20115;-61
2022/05/30 11:09:36;;;;;;;1.10;0.68;;;22.20;40.30;;;;;;5096174;28;19912;-61
2022/05/30 11:12:20;;;;;;;2.13;0.80;;;22.40;38.20;;;;;;5100456;28;20031;-61
2022/05/30 11:15:08;;;;;;;2.03;0.60;;;22.50;37.90;;;;;;5087679;28;20032;-61
2022/05/30 11:17:46;;;;;;;2.20;0.82;;;22.60;35.00;;;;;;5090937;28;20039;-60
2022/05/30 11:20:29;;;;;;;3.50;0.95;;;22.70;38.20;;;;;;5093495;28;20048;-62
2022/05/30 11:22:56;;;;;;;3.03;1.20;;;22.70;37.10;;;;;;5089381;28;20040;-62
2022/05/30 11:25:35;;;;;;;2.28;0.80;;;22.90;36.70;;;;;;5091058;28;20038;-61
2022/05/30 11:28:04;;;;;;;2.15;0.82;;;22.90;36.90;;;;;;5093272;28;20056;-61
2022/05/30 11:30:59;;;;;;;3.13;0.93;;;23.00;36.40;;;;;;5094348;28;20028;-61
2022/05/30 11:33:28;;;;;;;;;;;23.10;36.10;;;;;;5080136;28;20047;-61
2022/05/30 11:36:14;;;;;;;1.30;0.70;;;23.20;36.90;;;;;;5095078;28;19912;-61
2022/05/30 11:39:05;;;;;;;1.10;0.80;;;23.10;35.50;;;;;;5100509;28;20134;-61
2022/05/30 11:41:39;;;;;;;1.33;0.80;;;23.00;35.80;;;;;;5093566;28;20032;-61
2022/05/30 11:44:35;;;;;;;0.98;0.70;;;23.00;35.60;;;;;;5095572;28;20047;-62
2022/05/30 11:47:01;;;;;;;0.85;0.73;;;23.10;35.80;;;;;;5095705;28;20111;-61
2022/05/30 11:49:29;;;;;;;1.60;0.90;;;23.20;36.00;;;;;;5096811;28;20071;-61
2022/05/30 11:52:14;;;;;;;1.75;0.90;;;23.30;35.30;;;;;;5100199;28;20038;-61
2022/05/30 11:55:01;;;;;;;1.73;0.80;;;23.50;34.80;;;;;;5083828;28;20040;-61
2022/05/30 11:57:51;;;;;;;1.42;0.68;;;23.60;34.20;;;;;;5089683;28;20689;-61
2022/05/30 12:00:28;;;;;;;1.58;0.75;;;23.40;32.60;;;;;;5103473;28;20061;-62
2022/05/30 12:03:12;;;;;;;1.50;0.70;;;23.30;33.00;;;;;;5096938;28;20059;-62
2022/05/30 12:06:21;;;;;;;0.90;0.60;;;23.20;33.90;;;;;;5095954;28;20046;-61
2022/05/30 12:09:06;;;;;;;1.42;0.82;;;23.10;33.50;;;;;;5105787;28;20054;-61
2022/05/30 12:12:09;;;;;;;1.25;0.65;;;23.10;32.70;;;;;;5094300;28;20024;-63
2022/05/30 12:15:23;;;;;;;1.65;0.80;;;23.20;33.40;;;;;;5101746;28;20114;-61
2022/05/30 12:24:23;;;;;;;0.68;0.55;;;23.50;34.50;;;;;;5051096;28;20119;-61
2022/05/30 12:26:53;;;;;;;1.33;0.70;;;23.70;34.30;;;;;;5052542;28;20037;-62
2022/05/30 12:29:39;;;;;;;1.83;0.70;;;23.90;35.10;;;;;;5055443;28;20115;-61
2022/05/30 12:32:34;;;;;;;2.05;0.75;;;24.20;33.00;;;;;;5055399;28;20492;-62
2022/05/30 12:35:00;;;;;;;1.65;0.80;;;24.40;32.30;;;;;;5055864;28;20041;-61
2022/05/30 12:37:44;;;;;;;4.05;0.85;;;24.50;32.70;;;;;;5040567;28;20087;-61
2022/05/30 12:40:38;;;;;;;1.27;0.73;;;24.60;28.90;;;;;;5056520;28;20033;-61
2022/05/30 12:43:19;;;;;;;1.73;0.80;;;24.60;29.10;;;;;;5050412;28;20040;-61
2022/05/30 12:45:49;;;;;;;0.95;0.70;;;24.50;29.80;;;;;;5057698;28;20134;-61
2022/05/30 12:48:29;;;;;;;0.82;0.65;;;24.20;29.70;;;;;;5065999;28;20061;-62
2022/05/30 12:50:55;;;;;;;1.33;0.60;;;23.90;30.00;;;;;;5092147;28;20178;-61
2022/05/30 12:53:24;;;;;;;1.25;0.90;;;23.60;30.10;;;;;;5106169;28;20044;-62
2022/05/30 12:55:53;;;;;;;1.42;0.80;;;23.30;30.20;;;;;;5089713;28;20039;-62
2022/05/30 12:58:39;;;;;;;3.97;0.70;;;23.00;31.00;;;;;;5102614;28;20043;-61
2022/05/30 13:01:13;;;;;;;1.38;0.70;;;22.90;30.30;;;;;;5098403;28;20088;-61
2022/05/30 13:03:44;;;;;;;2.10;0.80;;;22.70;31.00;;;;;;5095424;28;20087;-61
2022/05/30 13:06:17;;;;;;;2.50;0.80;;;22.50;30.80;;;;;;5100090;28;20036;-61
2022/05/30 13:09:01;;;;;;;1.85;0.82;;;22.30;30.90;;;;;;5095652;28;20047;-60
2022/05/30 13:11:34;;;;;;;1.30;0.63;;;22.10;31.00;;;;;;5098902;28;20024;-61
2022/05/30 13:14:25;;;;;;;1.30;0.82;;;21.90;31.20;;;;;;5100716;28;20046;-60
2022/05/30 13:16:52;;;;;;;1.58;0.70;;;21.80;31.20;;;;;;5094441;28;20036;-61
2022/05/30 13:19:17;;;;;;;5.30;0.98;;;21.70;32.10;;;;;;5101512;28;20032;-61
2022/05/30 13:21:50;;;;;;;2.10;0.63;;;21.70;32.70;;;;;;5099811;28;20871;-61
2022/05/30 13:24:39;;;;;;;1.48;0.70;;;21.70;32.30;;;;;;5096153;28;20528;-61
2022/05/30 13:27:05;;;;;;;2.35;0.80;;;21.70;31.90;;;;;;5098947;28;20043;-60
2022/05/30 13:29:38;;;;;;;1.45;0.65;;;21.70;32.60;;;;;;5098930;28;20121;-61
2022/05/30 13:32:13;;;;;;;1.45;0.70;;;21.60;32.10;;;;;;5100136;28;20073;-61
2022/05/30 13:34:48;;;;;;;2.08;0.90;;;21.70;32.60;;;;;;5097688;28;20036;-61
2022/05/30 13:37:22;;;;;;;1.95;0.80;;;21.60;32.30;;;;;;5098849;28;20147;-61
2022/05/30 13:39:50;;;;;;;2.95;0.80;;;21.60;31.70;;;;;;5097422;28;20031;-62